createdAt,value
2017-09-08T00:00:31.442Z,74.60
2017-09-08T00:02:59.033Z,74.50
2017-09-08T00:05:26.533Z,74.50
2017-09-08T00:07:54.067Z,74.70
2017-09-08T00:10:21.565Z,74.60
2017-09-08T00:12:49.063Z,74.40
2017-09-08T00:15:16.580Z,74.60
2017-09-08T00:17:44.105Z,74.30
2017-09-08T00:20:11.624Z,75.20
2017-09-08T00:22:39.912Z,74.60
2017-09-08T00:25:07.424Z,74.50
2017-09-08T00:27:34.916Z,74.50
2017-09-08T00:30:03.220Z,74.50
2017-09-08T00:32:30.720Z,74.30
2017-09-08T00:34:58.207Z,74.30
2017-09-08T00:37:25.720Z,74.50
2017-09-08T00:39:53.225Z,74.30
2017-09-08T00:42:21.525Z,74.30
2017-09-08T00:44:49.064Z,74.30
2017-09-08T00:47:16.634Z,74.40
2017-09-08T00:49:44.167Z,74.40
2017-09-08T00:52:12.421Z,74.80
2017-09-08T00:54:39.939Z,74.80
2017-09-08T00:57:07.453Z,75.30
2017-09-08T00:59:35.756Z,75.80
2017-09-08T01:02:03.269Z,75.70
2017-09-08T01:04:30.774Z,75.90
2017-09-08T01:06:58.319Z,76.00
2017-09-08T01:09:26.590Z,76.30
2017-09-08T01:11:54.846Z,76.40
2017-09-08T01:14:23.135Z,76.40
2017-09-08T01:16:51.413Z,76.60
2017-09-08T01:19:19.692Z,76.60
2017-09-08T01:21:47.196Z,76.50
2017-09-08T01:24:14.712Z,76.50
2017-09-08T01:26:42.222Z,76.40
2017-09-08T01:29:09.719Z,76.30
2017-09-08T01:31:37.246Z,76.20
2017-09-08T01:34:04.732Z,76.00
2017-09-08T01:36:32.252Z,76.00
2017-09-08T01:38:59.856Z,75.80
2017-09-08T01:41:27.368Z,75.70
2017-09-08T01:43:54.882Z,75.50
2017-09-08T01:46:22.427Z,75.50
2017-09-08T01:48:49.988Z,75.70
2017-09-08T01:51:17.496Z,75.90
2017-09-08T01:53:44.983Z,75.80
2017-09-08T01:56:13.286Z,75.80
2017-09-08T01:58:40.776Z,75.70
2017-09-08T02:01:08.269Z,75.70
2017-09-08T02:03:36.552Z,75.40
2017-09-08T02:06:04.808Z,75.50
2017-09-08T02:08:33.128Z,75.30
2017-09-08T02:11:00.672Z,75.30
2017-09-08T02:13:28.935Z,75.60
2017-09-08T02:15:57.233Z,75.30
2017-09-08T02:18:24.784Z,75.30
2017-09-08T02:20:52.304Z,75.40
2017-09-08T02:23:19.797Z,75.70
2017-09-08T02:25:47.367Z,75.80
2017-09-08T02:28:14.917Z,76.00
2017-09-08T02:30:42.420Z,76.20
2017-09-08T02:33:09.960Z,76.40
2017-09-08T02:35:37.488Z,76.80
2017-09-08T02:38:04.990Z,76.80
2017-09-08T02:40:32.537Z,76.80
2017-09-08T02:43:00.026Z,76.70
2017-09-08T02:45:27.516Z,76.80
2017-09-08T02:47:55.073Z,76.90
2017-09-08T02:50:22.651Z,77.30
2017-09-08T02:52:50.161Z,77.20
2017-09-08T02:55:18.440Z,77.30
2017-09-08T02:57:46.760Z,77.40
2017-09-08T03:00:14.299Z,77.40
2017-09-08T03:02:41.797Z,77.60
2017-09-08T03:05:09.294Z,77.90
2017-09-08T03:07:37.604Z,78.00
2017-09-08T03:10:05.104Z,78.00
2017-09-08T03:12:32.612Z,77.70
2017-09-08T03:15:00.101Z,77.80
2017-09-08T03:17:27.620Z,77.50
2017-09-08T03:19:55.106Z,77.40
2017-09-08T03:22:22.625Z,77.30
2017-09-08T03:24:50.883Z,77.30
2017-09-08T03:27:18.382Z,77.20
2017-09-08T03:29:45.919Z,77.40
2017-09-08T03:32:14.177Z,77.20
2017-09-08T03:34:42.440Z,77.00
2017-09-08T03:37:09.956Z,77.00
2017-09-08T03:39:37.497Z,76.90
2017-09-08T03:42:05.049Z,76.90
2017-09-08T03:44:32.568Z,76.80
2017-09-08T03:47:00.064Z,76.90
2017-09-08T03:49:27.577Z,76.90
2017-09-08T03:51:55.181Z,76.90
2017-09-08T03:54:22.745Z,76.80
2017-09-08T03:56:50.233Z,76.50
2017-09-08T03:59:17.756Z,76.30
2017-09-08T04:01:45.323Z,76.30
2017-09-08T04:04:12.817Z,76.40
2017-09-08T04:06:40.340Z,76.30
2017-09-08T04:09:07.828Z,76.40
2017-09-08T04:11:35.354Z,76.20
2017-09-08T04:14:02.853Z,76.00
2017-09-08T04:16:31.120Z,75.80
2017-09-08T04:18:58.639Z,75.90
2017-09-08T04:21:26.124Z,75.70
2017-09-08T04:23:53.636Z,75.60
2017-09-08T04:26:21.924Z,75.60
2017-09-08T04:28:49.419Z,75.50
2017-09-08T04:31:16.956Z,75.30
2017-09-08T04:33:44.443Z,75.30
2017-09-08T04:36:11.942Z,75.30
2017-09-08T04:38:40.236Z,75.00
2017-09-08T04:41:07.783Z,75.00
2017-09-08T04:43:35.302Z,75.10
2017-09-08T04:46:02.799Z,74.90
2017-09-08T04:48:30.316Z,75.00
2017-09-08T04:50:57.852Z,75.30
2017-09-08T04:53:25.371Z,75.20
2017-09-08T04:55:52.896Z,75.20
2017-09-08T04:58:20.392Z,75.20
2017-09-08T05:00:47.917Z,75.20
2017-09-08T05:03:16.272Z,75.10
2017-09-08T05:05:43.763Z,75.00
2017-09-08T05:08:12.041Z,75.10
2017-09-08T05:10:40.328Z,75.30
2017-09-08T05:13:07.857Z,75.30
2017-09-08T05:15:36.122Z,74.80
2017-09-08T05:18:04.410Z,75.30
2017-09-08T05:20:32.663Z,75.20
2017-09-08T05:23:00.988Z,75.10
2017-09-08T05:25:28.512Z,75.10
2017-09-08T05:27:56.845Z,75.20
2017-09-08T05:30:24.378Z,75.20
2017-09-08T05:32:51.932Z,75.00
2017-09-08T05:35:20.228Z,75.10
2017-09-08T05:37:47.774Z,75.00
2017-09-08T05:40:15.344Z,75.00
2017-09-08T05:42:42.856Z,74.90
2017-09-08T05:45:10.340Z,75.00
2017-09-08T05:47:37.912Z,74.90
2017-09-08T05:50:05.405Z,74.70
2017-09-08T05:52:32.916Z,74.60
2017-09-08T05:55:00.481Z,74.60
2017-09-08T05:57:28.020Z,74.80
2017-09-08T05:59:56.409Z,74.50
2017-09-08T06:02:23.921Z,74.30
2017-09-08T06:04:51.517Z,74.40
2017-09-08T06:07:19.796Z,74.60
2017-09-08T06:09:48.044Z,74.60
2017-09-08T06:12:16.320Z,74.50
2017-09-08T06:14:44.627Z,74.40
2017-09-08T06:17:12.156Z,74.40
2017-09-08T06:19:40.420Z,74.20
2017-09-08T06:22:07.908Z,74.30
2017-09-08T06:24:36.201Z,74.10
2017-09-08T06:27:03.716Z,74.20
2017-09-08T06:29:31.307Z,74.00
2017-09-08T06:31:58.848Z,74.00
2017-09-08T06:34:27.116Z,74.40
2017-09-08T06:36:55.373Z,74.30
2017-09-08T06:39:22.903Z,74.20
2017-09-08T06:41:50.403Z,74.30
2017-09-08T06:44:18.661Z,73.70
2017-09-08T06:46:46.196Z,73.70
2017-09-08T06:49:13.691Z,73.50
2017-09-08T06:51:41.957Z,73.00
2017-09-08T06:54:09.472Z,73.00
2017-09-08T06:56:36.972Z,72.90
2017-09-08T06:59:04.492Z,72.60
2017-09-08T07:01:31.980Z,72.50
2017-09-08T07:03:59.494Z,72.40
2017-09-08T07:06:27.019Z,72.40
2017-09-08T07:08:54.512Z,72.00
2017-09-08T07:11:22.039Z,71.70
2017-09-08T07:13:50.756Z,71.90
2017-09-08T07:16:18.283Z,71.90
2017-09-08T07:18:46.560Z,71.90
2017-09-08T07:21:14.817Z,71.90
2017-09-08T07:23:43.120Z,72.00
2017-09-08T07:26:11.401Z,72.10
2017-09-08T07:28:38.901Z,72.10
2017-09-08T07:31:06.427Z,72.00
2017-09-08T07:33:33.924Z,71.90
2017-09-08T07:36:01.443Z,71.80
2017-09-08T07:38:28.941Z,71.90
2017-09-08T07:40:56.557Z,71.90
2017-09-08T07:43:24.077Z,72.10
2017-09-08T07:45:52.384Z,72.20
2017-09-08T07:48:19.903Z,72.20
2017-09-08T07:50:47.397Z,72.30
2017-09-08T07:53:14.923Z,72.20
2017-09-08T07:55:43.195Z,72.00
2017-09-08T07:58:10.801Z,72.80
2017-09-08T08:00:38.340Z,72.20
2017-09-08T08:03:06.641Z,72.00
2017-09-08T08:05:34.184Z,72.00
2017-09-08T08:08:01.692Z,72.10
2017-09-08T08:10:29.320Z,72.10
2017-09-08T08:12:56.820Z,71.50
2017-09-08T08:15:25.092Z,71.00
2017-09-08T08:17:53.429Z,70.80
2017-09-08T08:20:20.949Z,71.70
2017-09-08T08:22:49.240Z,70.30
2017-09-08T08:25:17.542Z,67.00
2017-09-08T08:27:45.039Z,67.00
2017-09-08T08:30:12.595Z,65.20
2017-09-08T08:32:40.133Z,64.80
2017-09-08T08:35:07.653Z,65.10
2017-09-08T08:37:35.160Z,62.00
2017-09-08T08:40:02.684Z,61.50
2017-09-08T08:42:30.208Z,60.20
2017-09-08T08:44:58.508Z,60.10
2017-09-08T08:47:26.005Z,60.10
2017-09-08T08:49:53.609Z,60.70
2017-09-08T08:52:21.121Z,60.00
2017-09-08T08:54:48.609Z,59.90
2017-09-08T08:57:16.882Z,59.80
2017-09-08T08:59:45.170Z,59.40
2017-09-08T09:02:12.747Z,59.40
2017-09-08T09:04:40.293Z,59.80
2017-09-08T09:07:07.827Z,57.80
2017-09-08T09:09:36.085Z,58.10
2017-09-08T09:12:04.350Z,57.90
2017-09-08T09:14:31.873Z,57.80
2017-09-08T09:16:59.371Z,57.30
2017-09-08T09:19:26.887Z,57.00
2017-09-08T09:21:54.428Z,56.30
2017-09-08T09:24:22.746Z,56.60
2017-09-08T09:26:50.236Z,56.50
2017-09-08T09:29:18.491Z,56.40
2017-09-08T09:31:46.008Z,56.40
2017-09-08T09:34:13.549Z,56.30
2017-09-08T09:36:41.823Z,55.30
2017-09-08T09:39:09.369Z,55.30
2017-09-08T09:41:37.766Z,55.20
2017-09-08T09:44:05.320Z,55.10
2017-09-08T09:46:32.838Z,55.50
2017-09-08T09:49:00.328Z,54.80
2017-09-08T09:51:27.875Z,55.10
2017-09-08T09:53:56.165Z,55.30
2017-09-08T09:56:23.679Z,55.30
2017-09-08T09:58:51.213Z,55.10
2017-09-08T10:01:18.744Z,55.00
2017-09-08T10:03:46.237Z,54.70
2017-09-08T10:06:13.769Z,54.50
2017-09-08T10:08:41.316Z,54.00
2017-09-08T10:11:08.812Z,54.30
2017-09-08T10:13:36.332Z,54.70
2017-09-08T10:16:03.853Z,54.40
2017-09-08T10:18:31.344Z,54.10
2017-09-08T10:20:58.868Z,53.60
2017-09-08T10:23:26.385Z,53.40
2017-09-08T10:25:53.884Z,54.40
2017-09-08T10:28:21.372Z,54.70
2017-09-08T10:30:48.952Z,54.60
2017-09-08T10:33:16.436Z,54.40
2017-09-08T10:35:43.951Z,54.80
2017-09-08T10:38:11.541Z,54.60
2017-09-08T10:40:39.103Z,53.30
2017-09-08T10:43:06.600Z,53.00
2017-09-08T10:45:35.000Z,52.70
2017-09-08T10:48:02.535Z,52.60
2017-09-08T10:50:30.802Z,51.90
2017-09-08T10:52:58.385Z,51.90
2017-09-08T10:55:25.894Z,52.60
2017-09-08T10:57:53.402Z,51.60
2017-09-08T11:00:20.967Z,50.90
2017-09-08T11:02:48.471Z,51.70
2017-09-08T11:05:15.992Z,48.80
2017-09-08T11:07:43.516Z,48.50
2017-09-08T11:10:11.913Z,47.50
2017-09-08T11:12:39.456Z,47.50
2017-09-08T11:15:07.742Z,48.10
2017-09-08T11:17:35.263Z,48.00
2017-09-08T11:20:02.866Z,48.10
2017-09-08T11:22:30.437Z,48.00
2017-09-08T11:24:57.937Z,48.20
2017-09-08T11:27:25.468Z,47.80
2017-09-08T11:29:52.969Z,46.90
2017-09-08T11:35:30.763Z,47.10
2017-09-08T11:37:58.286Z,47.10
2017-09-08T11:40:25.820Z,47.70
2017-09-08T11:42:54.118Z,47.50
2017-09-08T11:45:21.675Z,47.40
2017-09-08T11:47:49.222Z,47.70
2017-09-08T11:50:16.721Z,48.20
2017-09-08T11:52:44.241Z,47.60
2017-09-08T11:55:11.734Z,47.70
2017-09-08T11:57:39.275Z,48.10
2017-09-08T12:00:06.798Z,48.10
2017-09-08T12:02:34.296Z,48.10
2017-09-08T12:05:01.823Z,47.70
2017-09-08T12:07:29.346Z,47.80
2017-09-08T12:09:57.595Z,47.50
2017-09-08T12:12:25.113Z,47.50
2017-09-08T12:14:52.660Z,47.50
2017-09-08T12:17:20.168Z,47.50
2017-09-08T12:19:47.656Z,47.10
2017-09-08T12:22:15.967Z,46.00
2017-09-08T12:24:43.512Z,46.50
2017-09-08T12:27:11.012Z,45.50
2017-09-08T12:29:38.533Z,45.40
2017-09-08T12:32:06.095Z,46.30
2017-09-08T12:34:33.653Z,46.50
2017-09-08T12:37:01.173Z,46.50
2017-09-08T12:39:28.700Z,46.70
2017-09-08T12:41:56.201Z,47.30
2017-09-08T12:44:24.457Z,47.00
2017-09-08T12:46:51.990Z,47.00
2017-09-08T12:49:19.492Z,47.00
2017-09-08T12:51:47.821Z,47.70
2017-09-08T12:54:15.341Z,47.70
2017-09-08T12:56:42.843Z,47.60
2017-09-08T12:59:10.333Z,47.60
2017-09-08T13:01:38.635Z,48.30
2017-09-08T13:04:06.160Z,47.80
2017-09-08T13:06:34.437Z,48.30
2017-09-08T13:09:01.967Z,48.30
2017-09-08T13:11:29.458Z,48.40
2017-09-08T13:13:57.748Z,48.60
2017-09-08T13:16:26.028Z,48.50
2017-09-08T13:18:53.562Z,48.50
2017-09-08T13:21:21.864Z,49.10
2017-09-08T13:23:50.124Z,48.90
2017-09-08T13:26:18.416Z,48.90
2017-09-08T13:28:45.926Z,48.80
2017-09-08T13:31:13.456Z,48.50
2017-09-08T13:33:40.972Z,48.70
2017-09-08T13:36:09.283Z,49.40
2017-09-08T13:38:36.820Z,49.40
2017-09-08T13:41:05.088Z,49.20
2017-09-08T13:43:33.382Z,49.30
2017-09-08T13:46:00.891Z,49.20
2017-09-08T13:48:28.416Z,49.40
2017-09-08T13:50:55.964Z,49.20
2017-09-08T13:53:23.496Z,49.50
2017-09-08T13:55:51.017Z,49.90
2017-09-08T13:58:19.286Z,50.30
2017-09-08T14:00:46.816Z,50.40
2017-09-08T14:03:14.300Z,50.30
2017-09-08T14:05:41.822Z,49.70
2017-09-08T14:08:09.336Z,50.40
2017-09-08T14:10:37.654Z,51.10
2017-09-08T14:13:05.152Z,50.50
2017-09-08T14:15:32.649Z,50.70
2017-09-08T14:18:00.933Z,49.90
2017-09-08T14:20:28.433Z,49.90
2017-09-08T14:22:55.953Z,50.40
2017-09-08T14:25:23.456Z,50.00
2017-09-08T14:27:50.965Z,50.40
2017-09-08T14:30:18.492Z,50.50
2017-09-08T14:32:46.764Z,50.50
2017-09-08T14:35:14.278Z,50.50
2017-09-08T14:37:41.824Z,50.70
2017-09-08T14:40:09.377Z,50.70
2017-09-08T14:42:36.897Z,50.70
2017-09-08T14:45:04.398Z,50.70
2017-09-08T14:47:31.899Z,51.10
2017-09-08T14:50:00.192Z,50.20
2017-09-08T14:52:28.509Z,51.00
2017-09-08T14:54:56.049Z,50.40
2017-09-08T14:57:23.544Z,50.20
2017-09-08T14:59:51.497Z,50.20
2017-09-08T15:02:19.053Z,50.00
2017-09-08T15:04:46.556Z,50.40
2017-09-08T15:07:14.858Z,50.10
2017-09-08T15:09:42.389Z,50.20
2017-09-08T15:12:09.899Z,50.10
2017-09-08T15:14:37.453Z,50.10
2017-09-08T15:17:05.005Z,50.40
2017-09-08T15:19:32.525Z,50.60
2017-09-08T15:22:00.801Z,50.90
2017-09-08T15:24:28.926Z,50.70
2017-09-08T15:26:56.963Z,50.50
2017-09-08T15:29:24.518Z,51.10
2017-09-08T15:31:52.772Z,51.20
2017-09-08T15:34:20.318Z,51.20
2017-09-08T15:36:47.815Z,50.90
2017-09-08T15:39:15.366Z,51.30
2017-09-08T15:41:43.637Z,51.00
2017-09-08T15:44:11.929Z,50.80
2017-09-08T15:46:39.428Z,50.70
2017-09-08T15:49:06.981Z,50.40
2017-09-08T15:51:34.508Z,50.80
2017-09-08T15:54:02.013Z,50.90
2017-09-08T15:56:29.550Z,50.70
2017-09-08T15:58:57.053Z,51.00
2017-09-08T16:01:25.324Z,51.20
2017-09-08T16:03:53.629Z,51.20
2017-09-08T16:06:21.140Z,51.20
2017-09-08T16:08:48.750Z,51.40
2017-09-08T16:11:16.240Z,51.00
2017-09-08T16:13:43.728Z,51.10
2017-09-08T16:16:12.032Z,51.30
2017-09-08T16:18:39.536Z,51.30
2017-09-08T16:21:07.079Z,51.00
2017-09-08T16:23:35.249Z,51.10
2017-09-08T16:26:02.766Z,51.30
2017-09-08T16:28:30.337Z,51.50
2017-09-08T16:30:57.844Z,51.50
2017-09-08T16:33:25.347Z,51.80
2017-09-08T16:35:52.893Z,51.90
2017-09-08T16:38:21.169Z,52.10
2017-09-08T16:43:51.468Z,52.10
2017-09-08T16:46:18.991Z,52.60
2017-09-08T16:48:47.252Z,52.40
2017-09-08T16:51:15.558Z,52.30
2017-09-08T16:53:43.065Z,52.30
2017-09-08T16:56:10.632Z,52.70
2017-09-08T16:58:38.142Z,52.50
2017-09-08T17:01:05.634Z,52.60
2017-09-08T17:03:33.153Z,53.30
2017-09-08T17:06:00.643Z,53.40
2017-09-08T17:08:28.164Z,53.30
2017-09-08T17:10:55.663Z,53.00
2017-09-08T17:13:23.184Z,52.70
2017-09-08T17:15:50.713Z,53.00
2017-09-08T17:18:18.217Z,53.10
2017-09-08T17:20:45.729Z,53.10
2017-09-08T17:23:13.255Z,53.30
2017-09-08T17:25:40.776Z,53.60
2017-09-08T17:28:08.296Z,53.60
2017-09-08T17:30:36.563Z,54.80
2017-09-08T17:33:04.088Z,54.30
2017-09-08T17:35:31.572Z,54.00
2017-09-08T17:37:59.075Z,54.20
2017-09-08T17:40:26.598Z,54.80
2017-09-08T17:42:54.874Z,54.80
2017-09-08T17:45:22.433Z,54.30
2017-09-08T17:47:49.946Z,54.50
2017-09-08T17:50:17.484Z,54.30
2017-09-08T17:52:44.989Z,54.60
2017-09-08T17:55:12.491Z,54.50
2017-09-08T17:57:40.009Z,54.70
2017-09-08T18:00:07.511Z,54.90
2017-09-08T18:02:35.057Z,55.10
2017-09-08T18:05:02.573Z,55.00
2017-09-08T18:07:30.096Z,55.30
2017-09-08T18:09:57.633Z,55.30
2017-09-08T18:12:25.129Z,55.40
2017-09-08T18:14:52.666Z,55.20
2017-09-08T18:17:20.162Z,55.50
2017-09-08T18:19:47.686Z,55.50
2017-09-08T18:22:15.196Z,55.70
2017-09-08T18:24:43.497Z,55.80
2017-09-08T18:27:11.048Z,55.80
2017-09-08T18:29:38.549Z,55.90
2017-09-08T18:32:06.098Z,56.00
2017-09-08T18:34:33.608Z,56.10
2017-09-08T18:37:01.911Z,56.10
2017-09-08T18:39:29.411Z,56.10
2017-09-08T18:41:56.910Z,56.00
2017-09-08T18:44:25.245Z,56.30
2017-09-08T18:46:52.761Z,56.30
2017-09-08T18:49:20.283Z,56.20
2017-09-08T18:51:47.781Z,56.30
2017-09-08T18:54:15.283Z,56.40
2017-09-08T18:56:42.866Z,56.30
2017-09-08T18:59:11.130Z,56.40
2017-09-08T19:01:39.436Z,56.40
2017-09-08T19:04:06.937Z,56.40
2017-09-08T19:06:34.471Z,56.50
2017-09-08T19:09:01.972Z,56.50
2017-09-08T19:11:30.288Z,56.90
2017-09-08T19:13:57.828Z,56.90
2017-09-08T19:16:26.111Z,56.80
2017-09-08T19:18:53.603Z,56.80
2017-09-08T19:21:21.127Z,56.90
2017-09-08T19:23:48.687Z,56.90
2017-09-08T19:26:16.193Z,56.90
2017-09-08T19:28:43.731Z,57.10
2017-09-08T19:31:11.278Z,57.10
2017-09-08T19:33:38.788Z,57.10
2017-09-08T19:36:06.308Z,57.20
2017-09-08T19:38:33.836Z,57.30
2017-09-08T19:41:01.394Z,57.30
2017-09-08T19:43:28.954Z,57.60
2017-09-08T19:45:56.480Z,57.40
2017-09-08T19:48:23.993Z,57.60
2017-09-08T19:50:51.544Z,57.60
2017-09-08T19:53:19.055Z,57.50
2017-09-08T19:55:47.319Z,58.20
2017-09-08T19:58:14.859Z,57.70
2017-09-08T20:00:42.369Z,57.90
2017-09-08T20:03:09.913Z,58.00
2017-09-08T20:05:38.181Z,58.20
2017-09-08T20:08:05.685Z,58.20
2017-09-08T20:10:33.213Z,58.30
2017-09-08T20:13:00.750Z,58.70
2017-09-08T20:15:29.053Z,58.90
2017-09-08T20:17:56.595Z,58.80
2017-09-08T20:20:24.909Z,59.10
2017-09-08T20:22:52.423Z,59.10
2017-09-08T20:25:20.692Z,59.20
2017-09-08T20:27:49.012Z,59.20
2017-09-08T20:30:17.210Z,59.20
2017-09-08T20:32:44.722Z,59.30
2017-09-08T20:35:13.013Z,59.50
2017-09-08T20:37:40.541Z,59.40
2017-09-08T20:40:08.810Z,59.90
2017-09-08T20:42:37.071Z,59.90
2017-09-08T20:45:04.621Z,59.90
2017-09-08T20:47:32.159Z,60.10
2017-09-08T20:49:59.689Z,60.10
2017-09-08T20:52:27.221Z,60.30
2017-09-08T20:54:55.543Z,60.80
2017-09-08T20:57:23.048Z,60.80
2017-09-08T20:59:50.589Z,61.00
2017-09-08T21:02:18.200Z,60.90
2017-09-08T21:04:45.758Z,60.90
2017-09-08T21:07:13.397Z,61.00
2017-09-08T21:09:41.698Z,61.30
2017-09-08T21:12:09.234Z,61.30
2017-09-08T21:14:37.515Z,61.30
2017-09-08T21:17:05.093Z,61.10
2017-09-08T21:19:32.602Z,61.30
2017-09-08T21:22:00.124Z,61.50
2017-09-08T21:24:27.740Z,61.50
2017-09-08T21:26:56.005Z,61.70
2017-09-08T21:29:24.299Z,61.60
2017-09-08T21:31:52.574Z,61.60
2017-09-08T21:34:20.140Z,61.60
2017-09-08T21:36:47.652Z,62.50
2017-09-08T21:39:15.230Z,61.80
2017-09-08T21:41:43.514Z,61.70
2017-09-08T21:44:11.796Z,61.80
2017-09-08T21:46:40.112Z,61.80
2017-09-08T21:49:07.616Z,61.80
2017-09-08T21:51:35.914Z,62.40
2017-09-08T21:54:03.424Z,62.30
2017-09-08T21:56:30.916Z,62.50
2017-09-08T21:58:59.201Z,63.20
2017-09-08T22:01:26.714Z,63.20
2017-09-08T22:03:54.250Z,63.30
2017-09-08T22:06:21.757Z,63.40
2017-09-08T22:08:50.062Z,63.40
2017-09-08T22:11:17.559Z,63.40
2017-09-08T22:13:45.052Z,63.50
2017-09-08T22:16:12.576Z,63.80
2017-09-08T22:18:40.875Z,65.00
2017-09-08T22:21:08.396Z,64.00
2017-09-08T22:23:35.891Z,63.90
2017-09-08T22:26:04.172Z,64.20
2017-09-08T22:28:32.540Z,64.40
2017-09-08T22:31:00.038Z,64.30
2017-09-08T22:33:27.580Z,64.60
2017-09-08T22:35:55.178Z,64.60
2017-09-08T22:38:22.962Z,64.70
2017-09-08T22:40:51.272Z,65.00
2017-09-08T22:43:19.552Z,65.10
2017-09-08T22:45:47.054Z,65.10
2017-09-08T22:48:14.572Z,65.20
2017-09-08T22:50:42.267Z,65.30
2017-09-08T22:53:09.914Z,65.40
2017-09-08T22:55:37.412Z,65.50
2017-09-08T22:58:04.926Z,65.60
2017-09-08T23:00:32.526Z,65.50
2017-09-08T23:03:00.027Z,65.70
2017-09-08T23:05:27.896Z,65.80
2017-09-08T23:07:55.393Z,65.90
2017-09-08T23:10:22.922Z,66.00
2017-09-08T23:12:50.873Z,65.80
2017-09-08T23:15:18.369Z,65.90
2017-09-08T23:17:45.891Z,65.90
2017-09-08T23:20:13.401Z,66.00
2017-09-08T23:22:40.914Z,66.10
2017-09-08T23:25:08.412Z,66.10
2017-09-08T23:27:35.935Z,66.20
2017-09-08T23:30:03.467Z,66.20
2017-09-08T23:32:31.754Z,66.90
2017-09-08T23:34:59.264Z,66.80
2017-09-08T23:37:26.783Z,66.90
2017-09-08T23:39:54.350Z,67.00
2017-09-08T23:42:21.847Z,66.90
2017-09-08T23:44:50.136Z,66.60
2017-09-08T23:47:18.401Z,66.70
2017-09-08T23:49:45.889Z,66.70
2017-09-08T23:52:13.437Z,66.90
2017-09-08T23:54:41.700Z,68.10
2017-09-08T23:57:09.963Z,67.30
2017-09-08T23:59:37.484Z,67.30
